Terminal Aerodrome Forecast
Issued by NWS

Home | Current Version | Previous Version | Text Only | Print | Product List | Glossary On
Versions: 1 2 3 4 5 6 7 8 9 10 11 12 13 14 15 16
818
FTUS44 KCRP 272338
TAFALI
TAF
KALI 272338Z 2800/2824 14012KT P6SM SCT040
      TEMPO 2803/2805 BKN015 OVC040
     FM280500 16010KT P6SM BKN015
     FM281000 17007KT 5SM BR OVC009 WS020/18040KT
      TEMPO 2810/2813 OVC004
     FM281400 18012G18KT P6SM BKN015
     FM281630 18018G25KT P6SM SCT030
      TEMPO 2817/2819 BKN030
     FM282100 15018G25KT P6SM SCT040 BKN250=

USA.gov is the U.S. government's official web portal to all federal, state and local government web resources and services.